Penrose, North Carolina
Current Conditions -  °F | °C
As of 6:54 PM on Sunday 21 Dec 2014 (Local Time) from KAVL Reporting Station
Overcast Overcast  
Wind Chill: 38°   Ceiling: 1200
Heat Index: 42°   Visibility: 10mi
Dew Point: 37°   Wind: 6mph
Humidity: 82%   Direction: 130°SE
Pressure: 30.15"   Gusts: NA
Location:  35.27°N, 82.64°W
Report Text: KAVL 212354Z 13005KT 10SM OVC012 06/03 A3015 RMK AO2 SLP212 T00560028 10089 20056 53007
Loading
Personal Weather Stations






























Interactive Weather Map New forecast layout! Learn more

10-Day Weather Forecast

Advertisements
Track Severe Weather on mobile